Main page
METAR-TAF:

METAR-TAF

Airports :

Fort-de-France, Martinique

Martinique Aimé Césaire International Airport

latitude: 14-36N, longitude: 061-00W, elevation: 5 m

Current weather observation

The report was made 28 minutes ago, at 01:00 UTC
Wind 3 kt from variable directions
Temperature 25°C
Humidity 83%
Pressure 1013 hPa
Visibility 10 km or more
no clouds below 1500 m and no cumulonimbus

METAR: TFFF 290100Z AUTO VRB03KT CAVOK 25/22 Q1013 NOSIG

Time: 21:28 (01:28 UTC)

Forecast

The report was made 2 hours and 28 minutes ago, at 23:00 UTC
Forecast valid from 29 at 00 UTC to 29 at 24 UTC
Wind 5 kt from the East
Visibility 10 km or more
Scattered clouds at a height of 2800 ft
Probability 30% :
Temporary
from 29 at 15 UTC to 29 at 21 UTC
Visibility: 4000 m
Scattered clouds at a height of 2000 ft, Towering cumulus.
rain showers

TAF: TFFF 282300Z 2900/2924 09005KT 9999 SCT028 PROB30 TEMPO 2915/2921 4000 SHRA SCT020TCU

Weather observations and forecasts of more than 4000 airports (METAR and TAF reports).

The available stations are represented by yellow and red dots on the map.

Hover mouse over dot to see the name of the station.

Then click to see weather observations and forecasts.

To change the map : click on the green buttons with a black cross to zoom in, on the green button with a dash to zoom out, or on the green arrows for adjacent maps.


METAR-TAF: